Time;durP1;ratioP1;P1;durP2;ratioP2;P2;SDS_P1;SDS_P2;PMS_P1;PMS_P2;Temp;Humidity;BMP_temperature;BMP_pressure;BME280_temperature;BME280_humidity;BME280_pressure;Samples;Min_cycle;Max_cycle;Signal;HPM_P1;HPM_P2
2023/04/18 00:02:54;;;;;;;;;;;10.40;99.90;;;;;;8393605;28;20383;-71
2023/04/18 00:06:56;;;;;;;;;;;10.30;99.90;;;;;;8380328;28;19925;-71
2023/04/18 00:10:57;;;;;;;;;;;10.20;99.90;;;;;;8392174;28;19929;-71
2023/04/18 00:15:00;;;;;;;;;;;10.20;99.90;;;;;;8391271;28;20395;-72
2023/04/18 00:19:03;;;;;;;;;;;10.10;99.90;;;;;;8380848;28;20295;-71
2023/04/18 00:23:05;;;;;;;;;;;10.10;99.90;;;;;;8393921;28;19925;-71
2023/04/18 00:27:06;;;;;;;;;;;10.00;99.90;;;;;;8368036;28;19925;-71
2023/04/18 00:31:08;;;;;;;;;;;10.00;99.90;;;;;;8392724;28;19972;-71
2023/04/18 00:35:10;;;;;;;;;;;10.00;99.90;;;;;;8392543;28;19925;-71
2023/04/18 00:39:11;;;;;;;;;;;9.90;99.90;;;;;;8392285;28;19929;-71
2023/04/18 00:43:13;;;;;;;;;;;9.80;99.90;;;;;;8382779;28;19931;-71
2023/04/18 00:47:16;;;;;;;;;;;9.70;99.90;;;;;;8402388;28;19925;-71
2023/04/18 00:51:18;;;;;;;;;;;9.60;99.90;;;;;;8383000;28;19924;-71
2023/04/18 00:55:20;;;;;;;;;;;9.50;99.90;;;;;;8382295;28;19968;-71
2023/04/18 00:59:22;;;;;;;;;;;9.50;99.90;;;;;;8405346;28;19932;-71
2023/04/18 01:03:26;;;;;;;;;;;9.40;99.90;;;;;;8382519;28;19935;-71
2023/04/18 01:07:29;;;;;;;;;;;9.40;99.90;;;;;;8388743;28;19956;-71
2023/04/18 01:11:31;;;;;;;;;;;9.30;99.90;;;;;;8387810;28;19928;-71
2023/04/18 01:15:32;;;;;;;;;;;9.20;99.90;;;;;;8416122;28;19925;-71
2023/04/18 01:19:34;;;;;;;;;;;9.10;99.90;;;;;;8378483;28;19977;-71
2023/04/18 01:23:36;;;;;;;;;;;8.90;99.90;;;;;;8386321;28;19978;-71
2023/04/18 01:27:37;;;;;;;;;;;8.90;99.90;;;;;;8379986;28;20003;-71
2023/04/18 01:31:39;;;;;;;;;;;8.90;99.90;;;;;;8382364;28;19924;-71
2023/04/18 01:35:41;;;;;;;;;;;8.70;99.90;;;;;;8383411;28;19990;-71
2023/04/18 01:39:42;;;;;;;;;;;8.70;99.90;;;;;;8381216;28;19931;-71
2023/04/18 01:43:44;;;;;;;;;;;8.60;99.90;;;;;;8380565;28;19932;-71
2023/04/18 01:47:46;;;;;;;;;;;8.50;99.90;;;;;;8392014;28;19924;-71
2023/04/18 01:51:48;;;;;;;;;;;8.50;99.90;;;;;;8383827;28;20022;-71
2023/04/18 01:55:49;;;;;;;;;;;8.40;99.90;;;;;;8388309;28;20296;-71
2023/04/18 01:59:51;;;;;;;;;;;8.30;99.90;;;;;;8378538;28;19975;-71
2023/04/18 02:03:53;;;;;;;;;;;8.30;99.90;;;;;;8378974;28;19932;-71
2023/04/18 02:07:55;;;;;;;;;;;8.20;99.80;;;;;;8381545;28;19936;-71
2023/04/18 02:11:58;;;;;;;;;;;8.20;99.90;;;;;;8364215;28;20308;-71
2023/04/18 02:16:00;;;;;;;;;;;8.10;99.90;;;;;;8400536;28;19939;-71
2023/04/18 02:20:01;;;;;;;;;;;8.10;99.90;;;;;;8395140;28;19928;-71
2023/04/18 02:24:03;;;;;;;;;;;8.00;99.90;;;;;;8387112;28;20027;-71
2023/04/18 02:28:04;;;;;;;;;;;8.00;99.90;;;;;;8364105;28;20300;-71
2023/04/18 02:47:17;;;;;;;;;;;7.70;99.50;;;;;;8380029;28;19946;-71
2023/04/18 02:51:19;;;;;;;;;;;7.70;99.70;;;;;;8389108;28;20376;-71
2023/04/18 02:55:21;;;;;;;;;;;7.60;99.60;;;;;;8369244;28;19939;-71
2023/04/18 02:59:22;;;;;;;;;;;7.60;99.70;;;;;;8377515;28;20284;-70
2023/04/18 03:03:24;;;;;;;;;;;7.60;99.60;;;;;;8375914;28;20030;-71
2023/04/18 03:07:26;;;;;;;;;;;7.60;99.90;;;;;;8375305;28;19931;-70
2023/04/18 03:26:34;;;;;;;;;;;7.30;99.40;;;;;;8378512;28;19928;-70
2023/04/18 03:30:36;;;;;;;;;;;7.30;99.90;;;;;;8359782;28;19976;-71
2023/04/18 03:34:38;;;;;;;;;;;7.30;99.50;;;;;;8367832;28;19930;-71
2023/04/18 03:38:40;;;;;;;;;;;7.20;99.90;;;;;;8375405;28;19960;-71
2023/04/18 03:42:41;;;;;;;;;;;7.10;99.50;;;;;;8365798;28;19932;-70
2023/04/18 03:46:43;;;;;;;;;;;7.10;99.70;;;;;;8358070;28;19933;-71
2023/04/18 03:50:45;;;;;;;;;;;7.00;99.50;;;;;;8379687;28;20407;-70
2023/04/18 03:54:47;;;;;;;;;;;7.00;99.90;;;;;;8379862;28;20690;-71
2023/04/18 03:58:48;;;;;;;;;;;7.00;99.80;;;;;;8370931;28;19925;-70
2023/04/18 04:02:50;;;;;;;;;;;6.90;99.60;;;;;;8357420;28;20922;-70
2023/04/18 04:06:52;;;;;;;;;;;6.90;99.60;;;;;;8357050;28;20288;-70
2023/04/18 04:10:53;;;;;;;;;;;6.80;99.60;;;;;;8373999;28;19924;-70
2023/04/18 04:14:55;;;;;;;;;;;6.70;99.40;;;;;;8379215;28;19983;-70
2023/04/18 04:18:57;;;;;;;;;;;6.70;99.60;;;;;;8375690;28;19931;-70
2023/04/18 04:22:59;;;;;;;;;;;6.70;99.90;;;;;;8396919;28;19933;-70
2023/04/18 04:27:02;;;;;;;;;;;6.60;99.30;;;;;;8379202;28;20420;-69
2023/04/18 04:31:05;;;;;;;;;;;6.70;99.40;;;;;;8367628;28;20403;-70
2023/04/18 04:35:07;;;;;;;;;;;6.70;99.60;;;;;;8365089;28;20384;-70
2023/04/18 04:39:10;;;;;;;;;;;6.80;99.90;;;;;;8374403;28;20326;-70
2023/04/18 04:43:14;;;;;;;;;;;6.90;99.90;;;;;;8380404;28;19933;-70
2023/04/18 04:47:16;;;;;;;;;;;7.00;99.90;;;;;;8372855;28;19932;-70
2023/04/18 04:51:17;;;;;;;;;;;7.00;99.90;;;;;;8371067;28;20383;-70
2023/04/18 04:55:19;;;;;;;;;;;7.10;99.90;;;;;;8380306;28;19932;-71
2023/04/18 04:59:20;;;;;;;;;;;7.10;99.90;;;;;;8379545;28;19935;-71
2023/04/18 05:03:22;;;;;;;;;;;7.20;99.90;;;;;;8380197;28;19967;-70
2023/04/18 05:07:24;;;;;;;;;;;7.20;99.90;;;;;;8377460;28;20332;-70
2023/04/18 05:11:26;;;;;;;;;;;7.20;99.90;;;;;;8390593;28;19966;-71
2023/04/18 05:15:28;;;;;;;;;;;7.20;99.90;;;;;;8398770;28;20298;-70
2023/04/18 05:19:29;;;;;;;;;;;7.30;99.90;;;;;;8363906;28;20019;-70
2023/04/18 05:23:31;;;;;;;;;;;7.30;99.90;;;;;;8393226;28;19975;-71
2023/04/18 05:27:33;;;;;;;;;;;7.30;99.90;;;;;;8377566;28;19947;-70
2023/04/18 05:31:34;;;;;;;;;;;7.30;99.90;;;;;;8369508;28;19929;-70
2023/04/18 05:35:36;;;;;;;;;;;7.30;99.90;;;;;;8358416;28;19940;-71
2023/04/18 05:39:38;;;;;;;;;;;7.30;99.90;;;;;;8358083;28;19932;-70
2023/04/18 05:43:40;;;;;;;;;;;7.40;99.90;;;;;;8390984;28;20332;-71
2023/04/18 05:47:43;;;;;;;;;;;7.40;99.90;;;;;;8369327;28;19924;-71
2023/04/18 05:51:45;;;;;;;;;;;7.50;99.90;;;;;;8389383;28;19931;-71
2023/04/18 05:55:47;;;;;;;;;;;7.50;99.90;;;;;;8395253;28;20291;-70
2023/04/18 05:59:49;;;;;;;;;;;7.50;99.90;;;;;;8409867;28;20399;-71
2023/04/18 06:03:51;;;;;;;;;;;7.60;99.90;;;;;;8407628;28;19975;-71
2023/04/18 06:07:53;;;;;;;;;;;7.60;99.90;;;;;;8373859;28;19948;-70
2023/04/18 06:11:56;;;;;;;;;;;7.70;99.90;;;;;;8367919;28;19929;-70
2023/04/18 06:15:59;;;;;;;;;;;7.80;99.90;;;;;;8411976;27;19931;-70
2023/04/18 06:20:00;;;;;;;;;;;7.90;99.90;;;;;;8375230;28;19931;-71
2023/04/18 06:34:10;;;;;;;;;;;8.20;99.90;;;;;;8372224;28;20012;-70
2023/04/18 06:38:11;;;;;;;;;;;8.30;99.90;;;;;;8369960;28;19928;-70
2023/04/18 06:42:13;;;;;;;;;;;8.40;99.90;;;;;;8383912;28;19928;-71
2023/04/18 06:46:15;;;;;;;;;;;8.50;99.90;;;;;;8364865;28;19925;-70
2023/04/18 06:50:17;;;;;;;;;;;8.60;99.90;;;;;;8368658;28;20387;-71
2023/04/18 06:54:18;;;;;;;;;;;8.70;99.90;;;;;;8367146;28;19976;-71
2023/04/18 06:58:20;;;;;;;;;;;8.80;99.90;;;;;;8364559;28;19925;-71
2023/04/18 07:02:22;;;;;;;;;;;9.00;99.90;;;;;;8383135;28;19924;-71
2023/04/18 07:06:23;;;;;;;;;;;9.10;99.90;;;;;;8373697;28;19925;-71
2023/04/18 07:10:25;;;;;;;;;;;9.20;99.90;;;;;;8363761;28;19932;-71
2023/04/18 07:14:27;;;;;;;;;;;9.20;99.90;;;;;;8365900;28;20355;-70
2023/04/18 07:18:29;;;;;;;;;;;9.20;99.90;;;;;;8365076;28;20027;-70
2023/04/18 07:22:38;;;;;;;;;;;9.20;99.90;;;;;;8376085;28;19979;-70
2023/04/18 07:26:40;;;;;;;;;;;9.20;99.90;;;;;;8369096;28;19928;-70
2023/04/18 07:30:41;;;;;;;;;;;9.20;99.90;;;;;;8379378;28;19925;-71
2023/04/18 07:34:43;;;;;;;;;;;9.30;99.90;;;;;;8385580;28;19928;-70
2023/04/18 07:38:45;;;;;;;;;;;9.40;99.90;;;;;;8393092;28;20511;-71
2023/04/18 07:42:47;;;;;;;;;;;9.50;99.90;;;;;;8395318;28;20388;-71
2023/04/18 07:46:48;;;;;;;;;;;9.70;99.90;;;;;;8396989;28;19931;-71
2023/04/18 07:50:50;;;;;;;;;;;9.90;99.90;;;;;;8387416;28;20380;-71
2023/04/18 07:54:52;;;;;;;;;;;10.10;99.90;;;;;;8370704;28;20095;-70
2023/04/18 07:58:53;;;;;;;;;;;10.40;99.90;;;;;;8364832;28;19939;-70
2023/04/18 08:02:55;;;;;;;;;;;10.70;99.90;;;;;;8361612;28;19935;-70
2023/04/18 08:06:57;;;;;;;;;;;10.90;99.90;;;;;;8373732;28;20388;-71
2023/04/18 08:10:59;;;;;;;;;;;11.20;99.90;;;;;;8361565;28;19931;-71
2023/04/18 08:15:00;;;;;;;;;;;11.60;99.90;;;;;;8363820;28;19999;-71
2023/04/18 08:19:02;;;;;;;;;;;11.80;99.90;;;;;;8359791;28;20360;-70
2023/04/18 08:23:04;;;;;;;;;;;12.00;99.90;;;;;;8367099;28;19960;-70
2023/04/18 08:27:09;;;;;;;;;;;12.20;99.90;;;;;;8362855;28;19960;-71
2023/04/18 08:31:11;;;;;;;;;;;12.20;99.90;;;;;;8398658;28;19932;-71
2023/04/18 08:35:13;;;;;;;;;;;12.10;99.90;;;;;;8401795;28;19925;-70
2023/04/18 08:39:14;;;;;;;;;;;11.90;99.90;;;;;;8379620;28;19964;-71
2023/04/18 08:43:16;;;;;;;;;;;11.60;99.90;;;;;;8371342;28;20006;-70
2023/04/18 08:47:19;;;;;;;;;;;11.70;99.90;;;;;;8382663;28;19924;-70
2023/04/18 08:51:21;;;;;;;;;;;11.90;99.90;;;;;;8380087;28;19924;-70
2023/04/18 08:55:23;;;;;;;;;;;12.20;99.90;;;;;;8375705;28;20308;-71
2023/04/18 08:59:25;;;;;;;;;;;12.20;99.90;;;;;;8362249;28;20012;-70
2023/04/18 09:03:40;;;;;;;;;;;12.10;99.90;;;;;;8367320;28;19925;-71
2023/04/18 09:07:42;;;;;;;;;;;12.10;99.90;;;;;;8370137;28;19990;-71
2023/04/18 09:11:43;;;;;;;;;;;12.30;99.90;;;;;;8366176;28;19948;-71
2023/04/18 09:15:53;;;;;;;;;;;12.30;99.90;;;;;;8366443;28;19932;-71
2023/04/18 09:19:55;;;;;;;;;;;12.50;99.90;;;;;;8371601;28;19929;-71
2023/04/18 09:24:14;;;;;;;;;;;12.80;99.90;;;;;;8367499;28;19936;-70
2023/04/18 09:28:22;;;;;;;;;;;12.80;99.90;;;;;;8381724;28;19939;-71
2023/04/18 09:32:25;;;;;;;;;;;12.80;99.90;;;;;;8384734;28;19925;-70
2023/04/18 09:36:27;;;;;;;;;;;12.70;99.90;;;;;;8377221;28;20316;-71
2023/04/18 09:40:29;;;;;;;;;;;12.90;99.90;;;;;;8380717;28;20899;-70
2023/04/18 09:44:31;;;;;;;;;;;13.00;99.90;;;;;;8396097;28;20261;-70
2023/04/18 09:48:33;;;;;;;;;;;13.40;99.90;;;;;;8385419;28;19980;-71
2023/04/18 09:52:39;;;;;;;;;;;13.60;99.90;;;;;;8399047;28;19983;-71
2023/04/18 09:56:42;;;;;;;;;;;13.70;99.90;;;;;;8365734;28;19929;-71
2023/04/18 10:00:44;;;;;;;;;;;13.70;99.90;;;;;;8377309;28;19931;-70
2023/04/18 10:04:50;;;;;;;;;;;13.50;99.90;;;;;;8369080;28;19929;-70
2023/04/18 10:08:52;;;;;;;;;;;13.50;99.90;;;;;;8380866;28;19925;-71
2023/04/18 10:12:55;;;;;;;;;;;13.40;99.90;;;;;;8375865;28;20284;-70
2023/04/18 10:16:57;;;;;;;;;;;13.40;99.90;;;;;;8393172;28;20311;-71
2023/04/18 10:21:02;;;;;;;;;;;13.50;99.90;;;;;;8374709;28;19928;-71
2023/04/18 10:25:05;;;;;;;;;;;13.50;99.90;;;;;;8363789;28;19924;-71
2023/04/18 10:29:08;;;;;;;;;;;13.60;99.90;;;;;;8366211;28;19924;-70
2023/04/18 10:33:18;;;;;;;;;;;13.80;99.90;;;;;;8372122;28;20333;-71
2023/04/18 10:37:32;;;;;;;;;;;13.60;99.90;;;;;;8369358;28;19983;-70
2023/04/18 10:41:33;;;;;;;;;;;13.40;99.90;;;;;;8387583;28;19934;-70
2023/04/18 10:45:35;;;;;;;;;;;13.70;99.90;;;;;;8387284;28;19959;-71
2023/04/18 10:49:37;;;;;;;;;;;14.00;99.90;;;;;;8378020;28;19935;-70
2023/04/18 10:53:45;;;;;;;;;;;14.10;99.90;;;;;;8380563;28;19932;-71
2023/04/18 10:57:49;;;;;;;;;;;13.90;99.90;;;;;;8370759;28;19932;-71
2023/04/18 11:01:54;;;;;;;;;;;13.90;99.90;;;;;;8376666;28;20257;-70
2023/04/18 11:06:02;;;;;;;;;;;14.20;99.90;;;;;;8373669;28;20432;-70
2023/04/18 11:10:05;;;;;;;;;;;14.60;99.90;;;;;;8399141;28;20296;-71
2023/04/18 11:14:07;;;;;;;;;;;14.70;99.90;;;;;;8379181;28;20016;-71
2023/04/18 11:18:08;;;;;;;;;;;14.80;99.90;;;;;;8367499;28;19932;-71
2023/04/18 11:22:10;;;;;;;;;;;15.00;99.90;;;;;;8387713;28;19925;-71
2023/04/18 11:26:16;;;;;;;;;;;15.10;99.90;;;;;;8369261;28;19935;-71
2023/04/18 11:30:17;;;;;;;;;;;15.10;99.90;;;;;;8374263;28;20022;-71
2023/04/18 11:34:19;;;;;;;;;;;15.10;99.90;;;;;;8396701;28;19932;-70
2023/04/18 11:38:26;;;;;;;;;;;14.90;99.90;;;;;;8384655;28;20296;-71
2023/04/18 11:42:30;;;;;;;;;;;14.80;99.90;;;;;;8364826;28;19975;-70
2023/04/18 11:46:38;;;;;;;;;;;14.70;99.90;;;;;;8365975;28;19978;-71
2023/04/18 11:50:40;;;;;;;;;;;14.70;99.90;;;;;;8355756;28;19924;-71
2023/04/18 11:54:42;;;;;;;;;;;14.80;99.90;;;;;;8353683;28;19932;-71
2023/04/18 11:58:44;;;;;;;;;;;15.00;99.90;;;;;;8354805;28;19948;-71
2023/04/18 12:02:47;;;;;;;;;;;15.10;99.90;;;;;;8356409;28;20688;-71
2023/04/18 12:06:49;;;;;;;;;;;14.90;99.90;;;;;;8393755;28;19925;-71
2023/04/18 12:10:52;;;;;;;;;;;14.70;99.90;;;;;;8365654;28;20019;-71
2023/04/18 12:14:57;;;;;;;;;;;14.50;99.90;;;;;;8393438;28;19929;-71
2023/04/18 12:18:59;;;;;;;;;;;14.30;99.90;;;;;;8365242;28;19925;-71
2023/04/18 12:23:02;;;;;;;;;;;14.20;99.90;;;;;;8396212;28;20304;-71
2023/04/18 12:27:04;;;;;;;;;;;14.00;99.90;;;;;;8376571;28;19987;-71
2023/04/18 12:31:06;;;;;;;;;;;14.10;99.90;;;;;;8393681;28;20384;-71
2023/04/18 12:35:08;;;;;;;;;;;14.10;99.90;;;;;;8360048;28;20015;-71
2023/04/18 12:39:09;;;;;;;;;;;14.20;99.90;;;;;;8373877;28;19974;-71
2023/04/18 12:43:11;;;;;;;;;;;14.20;99.90;;;;;;8382162;28;20368;-71
2023/04/18 12:47:12;;;;;;;;;;;14.30;99.90;;;;;;8358919;28;20008;-71
2023/04/18 12:51:14;;;;;;;;;;;14.40;99.90;;;;;;8360696;28;19962;-71
2023/04/18 12:55:16;;;;;;;;;;;14.50;99.90;;;;;;8369171;28;19993;-71
2023/04/18 12:59:17;;;;;;;;;;;14.70;99.90;;;;;;8374470;28;20403;-71
2023/04/18 13:03:19;;;;;;;;;;;15.00;99.90;;;;;;8364102;28;19931;-71
2023/04/18 13:07:21;;;;;;;;;;;15.30;99.90;;;;;;8400326;28;20376;-71
2023/04/18 13:11:27;;;;;;;;;;;15.40;99.90;;;;;;8390393;28;19932;-71
2023/04/18 13:15:29;;;;;;;;;;;15.50;99.90;;;;;;8361151;28;19967;-71
2023/04/18 13:19:31;;;;;;;;;;;15.40;99.90;;;;;;8357642;28;20288;-70
2023/04/18 13:23:32;;;;;;;;;;;15.30;99.90;;;;;;8361733;28;19925;-71
2023/04/18 13:27:34;;;;;;;;;;;15.30;99.90;;;;;;8373356;28;19933;-71
2023/04/18 13:31:36;;;;;;;;;;;15.50;99.90;;;;;;8359907;28;19935;-71
2023/04/18 13:35:37;;;;;;;;;;;15.70;99.90;;;;;;8371095;28;20289;-71
2023/04/18 13:39:39;;;;;;;;;;;15.70;99.90;;;;;;8356239;28;19925;-71
2023/04/18 13:43:41;;;;;;;;;;;15.70;99.90;;;;;;8376158;28;19924;-71
2023/04/18 13:47:43;;;;;;;;;;;15.50;99.90;;;;;;8389398;28;20011;-71
2023/04/18 13:51:45;;;;;;;;;;;15.40;99.90;;;;;;8359046;28;20368;-71
2023/04/18 13:55:46;;;;;;;;;;;15.30;99.90;;;;;;8387368;28;19928;-70
2023/04/18 13:59:48;;;;;;;;;;;15.20;99.90;;;;;;8364942;28;19932;-71
2023/04/18 14:03:50;;;;;;;;;;;15.10;99.90;;;;;;8365296;28;19952;-71
2023/04/18 14:07:51;;;;;;;;;;;15.00;99.90;;;;;;8284026;28;1988577;-71
2023/04/18 14:11:53;;;;;;;;;;;14.90;99.90;;;;;;8352119;28;19963;-70
2023/04/18 14:15:55;;;;;;;;;;;14.80;99.90;;;;;;8359513;28;19924;-70
2023/04/18 14:19:56;;;;;;;;;;;14.90;99.90;;;;;;8358743;28;19933;-70
2023/04/18 14:23:58;;;;;;;;;;;14.90;99.90;;;;;;8359289;28;19929;-70
2023/04/18 14:28:09;;;;;;;;;;;15.10;99.90;;;;;;8387346;28;19932;-70
2023/04/18 14:32:11;;;;;;;;;;;15.40;99.90;;;;;;8361464;28;19928;-71
2023/04/18 14:36:16;;;;;;;;;;;15.80;99.90;;;;;;8371634;28;20318;-71
2023/04/18 14:40:18;;;;;;;;;;;16.30;99.90;;;;;;8367970;28;19991;-71
2023/04/18 14:44:20;;;;;;;;;;;16.80;99.90;;;;;;8363225;28;20315;-71
2023/04/18 14:48:21;;;;;;;;;;;17.40;99.90;;;;;;8366987;28;19925;-70
2023/04/18 14:52:23;;;;;;;;;;;17.10;99.90;;;;;;8359031;28;20740;-71
2023/04/18 14:56:25;;;;;;;;;;;16.80;99.90;;;;;;8364334;28;20054;-70
2023/04/18 15:00:27;;;;;;;;;;;17.10;99.90;;;;;;8356907;28;20381;-71
2023/04/18 15:04:28;;;;;;;;;;;17.80;99.90;;;;;;8349637;28;20292;-71
2023/04/18 15:08:30;;;;;;;;;;;18.10;99.90;;;;;;8373715;28;20015;-76
2023/04/18 15:12:33;;;;;;;;;;;18.60;99.90;;;;;;8360676;28;19960;-76
2023/04/18 15:16:36;;;;;;;;;;;18.80;99.90;;;;;;8367433;28;19925;-76
2023/04/18 15:20:39;;;;;;;;;;;18.40;99.90;;;;;;8371026;28;20121;-76
2023/04/18 15:24:40;;;;;;;;;;;18.00;99.90;;;;;;8371456;28;20021;-76
2023/04/18 15:28:44;;;;;;;;;;;18.30;99.90;;;;;;8365446;28;19964;-76
2023/04/18 15:32:47;;;;;;;;;;;18.50;99.90;;;;;;8369527;28;19933;-76
2023/04/18 15:36:48;;;;;;;;;;;18.20;99.90;;;;;;8367583;28;19937;-76
2023/04/18 15:40:50;;;;;;;;;;;17.90;99.90;;;;;;8359948;28;20296;-76
2023/04/18 15:44:52;;;;;;;;;;;17.60;99.90;;;;;;8357925;28;19936;-76
2023/04/18 15:48:54;;;;;;;;;;;17.30;99.90;;;;;;8366906;28;20019;-76
2023/04/18 16:08:07;;;;;;;;;;;19.70;99.90;;;;;;8357988;28;20408;-77
2023/04/18 16:12:09;;;;;;;;;;;19.50;99.90;;;;;;8356994;28;20311;-76
2023/04/18 16:16:11;;;;;;;;;;;18.90;99.90;;;;;;8374935;28;19931;-77
2023/04/18 16:20:12;;;;;;;;;;;18.50;99.90;;;;;;8356282;28;20437;-76
2023/04/18 16:24:14;;;;;;;;;;;18.10;99.90;;;;;;8354111;28;20415;-76
2023/04/18 16:28:16;;;;;;;;;;;17.90;99.90;;;;;;8354374;28;19924;-76
2023/04/18 16:32:18;;;;;;;;;;;18.20;99.90;;;;;;8358241;28;20372;-77
2023/04/18 16:36:20;;;;;;;;;;;19.10;99.90;;;;;;8356536;28;19932;-77
2023/04/18 16:40:21;;;;;;;;;;;19.10;99.90;;;;;;8367442;28;19932;-76
2023/04/18 16:44:23;;;;;;;;;;;18.70;99.90;;;;;;8365498;28;19930;-76
2023/04/18 16:48:25;;;;;;;;;;;18.40;99.90;;;;;;8377049;28;19964;-77
2023/04/18 16:52:26;;;;;;;;;;;18.80;99.90;;;;;;8376970;28;19939;-77
2023/04/18 16:56:28;;;;;;;;;;;18.80;99.90;;;;;;8379161;28;19935;-76
2023/04/18 17:00:30;;;;;;;;;;;19.30;99.90;;;;;;8373667;28;19932;-76
2023/04/18 17:04:31;;;;;;;;;;;20.10;99.90;;;;;;8363960;28;19925;-76
2023/04/18 17:08:34;;;;;;;;;;;20.70;99.90;;;;;;8374908;28;20388;-76
2023/04/18 17:12:36;;;;;;;;;;;21.10;99.90;;;;;;8377875;28;19924;-76
2023/04/18 17:16:38;;;;;;;;;;;20.70;99.90;;;;;;8370170;28;19933;-76
2023/04/18 17:20:40;;;;;;;;;;;20.20;99.90;;;;;;8383719;28;19935;-76
2023/04/18 17:24:41;;;;;;;;;;;20.10;99.90;;;;;;8369065;28;19925;-77
2023/04/18 17:28:43;;;;;;;;;;;19.60;99.90;;;;;;8399696;28;20979;-76
2023/04/18 17:32:45;;;;;;;;;;;19.10;99.90;;;;;;8386516;28;20015;-76
2023/04/18 17:36:46;;;;;;;;;;;18.80;99.90;;;;;;8367284;28;19932;-76
2023/04/18 17:41:13;;;;;;;;;;;18.20;99.90;;;;;;8363810;28;19932;-76
2023/04/18 17:45:15;;;;;;;;;;;17.70;99.90;;;;;;8379821;28;19935;-76
2023/04/18 17:49:16;;;;;;;;;;;17.30;99.90;;;;;;8369125;28;20296;-76
2023/04/18 17:53:18;;;;;;;;;;;17.00;99.90;;;;;;8367140;28;19947;-76
2023/04/18 18:12:36;;;;;;;;;;;16.40;99.90;;;;;;8367367;28;19928;-76
2023/04/18 18:16:38;;;;;;;;;;;16.10;99.90;;;;;;8368891;28;19933;-76
2023/04/18 18:20:41;;;;;;;;;;;15.80;99.90;;;;;;8372803;28;19934;-76
2023/04/18 18:24:44;;;;;;;;;;;15.60;99.90;;;;;;8371849;28;19929;-76
2023/04/18 18:28:45;;;;;;;;;;;15.40;99.90;;;;;;8370311;28;19924;-76
2023/04/18 18:32:48;;;;;;;;;;;15.30;99.90;;;;;;8370297;28;20642;-76
2023/04/18 18:36:49;;;;;;;;;;;15.20;99.90;;;;;;8363931;28;19979;-76
2023/04/18 18:40:51;;;;;;;;;;;15.10;99.90;;;;;;8370650;28;19936;-76
2023/04/18 18:44:53;;;;;;;;;;;15.00;99.90;;;;;;8368891;28;20047;-76
2023/04/18 18:48:55;;;;;;;;;;;14.90;99.90;;;;;;8381522;28;19979;-76
2023/04/18 18:52:56;;;;;;;;;;;14.80;99.90;;;;;;8364518;28;19931;-76
2023/04/18 18:56:59;;;;;;;;;;;14.70;99.90;;;;;;8367725;28;19935;-75
2023/04/18 19:01:02;;;;;;;;;;;14.50;99.90;;;;;;8375376;28;20755;-76
2023/04/18 19:05:04;;;;;;;;;;;14.30;99.90;;;;;;8370484;28;20399;-76
2023/04/18 19:09:06;;;;;;;;;;;14.20;99.90;;;;;;8366461;28;19932;-76
2023/04/18 19:13:07;;;;;;;;;;;14.00;99.90;;;;;;8368242;28;20392;-76
2023/04/18 19:17:09;;;;;;;;;;;13.90;99.90;;;;;;8368021;28;19940;-76
2023/04/18 19:21:12;;;;;;;;;;;13.70;99.90;;;;;;8365265;28;20010;-77
2023/04/18 19:25:14;;;;;;;;;;;13.60;99.90;;;;;;8361775;28;20459;-76
2023/04/18 19:29:16;;;;;;;;;;;13.60;99.90;;;;;;8366356;28;19929;-76
2023/04/18 19:43:24;;;;;;;;;;;13.40;99.90;;;;;;8371873;28;19924;-76
2023/04/18 19:47:26;;;;;;;;;;;13.20;99.90;;;;;;8365736;28;19964;-76
2023/04/18 19:51:28;;;;;;;;;;;13.00;99.90;;;;;;8362602;28;19928;-76
2023/04/18 19:55:30;;;;;;;;;;;12.90;99.90;;;;;;8360467;28;19975;-76
2023/04/18 19:59:32;;;;;;;;;;;12.90;99.90;;;;;;8366256;28;20458;-76
2023/04/18 20:03:33;;;;;;;;;;;12.90;99.90;;;;;;8381731;28;19924;-76
2023/04/18 20:07:35;;;;;;;;;;;12.90;99.90;;;;;;8365252;28;19936;-76
2023/04/18 20:11:37;;;;;;;;;;;12.80;99.90;;;;;;8365664;28;20303;-76
2023/04/18 20:15:39;;;;;;;;;;;12.80;99.90;;;;;;8387486;28;19964;-76
2023/04/18 20:19:41;;;;;;;;;;;12.70;99.90;;;;;;8380308;28;19929;-77
2023/04/18 20:23:44;;;;;;;;;;;12.60;99.90;;;;;;8367128;28;19925;-76
2023/04/18 20:27:45;;;;;;;;;;;12.60;99.90;;;;;;8375767;28;19928;-76
2023/04/18 20:31:47;;;;;;;;;;;12.50;99.90;;;;;;8371403;28;19931;-76
2023/04/18 20:45:56;;;;;;;;;;;12.20;99.90;;;;;;8375651;28;19932;-76
2023/04/18 20:49:59;;;;;;;;;;;12.20;99.90;;;;;;8373948;28;19928;-76
2023/04/18 20:59:10;;;;;;;;;;;12.10;99.90;;;;;;8370400;28;19966;-76
2023/04/18 21:03:13;;;;;;;;;;;12.00;99.90;;;;;;8385911;28;19968;-76
2023/04/18 21:07:14;;;;;;;;;;;11.90;99.90;;;;;;8383369;28;19932;-76
2023/04/18 21:11:16;;;;;;;;;;;11.80;99.90;;;;;;8391396;28;19980;-76
2023/04/18 21:15:18;;;;;;;;;;;11.80;99.90;;;;;;8396352;28;19924;-76
2023/04/18 21:19:19;;;;;;;;;;;11.70;99.90;;;;;;8406572;28;20377;-76
2023/04/18 21:23:21;;;;;;;;;;;11.60;99.90;;;;;;8389183;28;19979;-76
2023/04/18 21:27:23;;;;;;;;;;;11.60;99.90;;;;;;8386729;28;19932;-76
2023/04/18 21:31:25;;;;;;;;;;;11.50;99.60;;;;;;8396206;28;19968;-76
2023/04/18 21:35:28;;;;;;;;;;;11.50;99.50;;;;;;8389685;28;19932;-76
2023/04/18 21:39:30;;;;;;;;;;;11.40;99.90;;;;;;8372047;28;19933;-76
2023/04/18 21:43:32;;;;;;;;;;;11.30;99.90;;;;;;8377606;28;20011;-76
2023/04/18 21:47:33;;;;;;;;;;;11.30;99.80;;;;;;8394684;28;20391;-76
2023/04/18 21:51:35;;;;;;;;;;;11.20;99.90;;;;;;8379455;28;20482;-76
2023/04/18 21:55:37;;;;;;;;;;;11.20;99.90;;;;;;8379114;28;19924;-76
2023/04/18 21:59:38;;;;;;;;;;;11.10;99.90;;;;;;8381051;28;20019;-76
2023/04/18 22:03:40;;;;;;;;;;;11.00;99.90;;;;;;8388766;28;19925;-76
2023/04/18 22:07:42;;;;;;;;;;;11.00;99.90;;;;;;8396486;28;19929;-75
2023/04/18 22:17:04;;;;;;;;;;;10.80;99.90;;;;;;8366842;28;19919;-75
2023/04/18 22:21:08;;;;;;;;;;;10.80;99.90;;;;;;8384414;28;19928;-76
2023/04/18 22:25:13;;;;;;;;;;;10.70;99.80;;;;;;8372459;28;19933;-76
2023/04/18 22:29:14;;;;;;;;;;;10.70;99.90;;;;;;8385030;28;20292;-75
2023/04/18 22:33:16;;;;;;;;;;;10.70;99.90;;;;;;8392668;28;19930;-76
2023/04/18 22:47:25;;;;;;;;;;;10.50;99.90;;;;;;8388510;28;20671;-76
2023/04/18 23:01:34;;;;;;;;;;;10.40;99.90;;;;;;8376942;28;19924;-76
2023/04/18 23:05:36;;;;;;;;;;;10.30;99.90;;;;;;8423190;28;20394;-75
2023/04/18 23:09:37;;;;;;;;;;;10.30;99.90;;;;;;8392707;28;19925;-76
2023/04/18 23:13:39;;;;;;;;;;;10.20;99.90;;;;;;8427636;28;20030;-76
2023/04/18 23:17:41;;;;;;;;;;;10.20;99.90;;;;;;8398016;28;19971;-76
2023/04/18 23:21:42;;;;;;;;;;;10.20;99.90;;;;;;8385803;28;19932;-76
2023/04/18 23:25:44;;;;;;;;;;;10.20;99.90;;;;;;8399343;28;19974;-76
2023/04/18 23:29:46;;;;;;;;;;;10.10;99.90;;;;;;8386637;28;19990;-75
2023/04/18 23:33:48;;;;;;;;;;;10.10;99.90;;;;;;8383007;28;19924;-75
2023/04/18 23:37:50;;;;;;;;;;;10.10;99.90;;;;;;8391582;28;19932;-76
2023/04/18 23:41:51;;;;;;;;;;;10.20;99.90;;;;;;8379598;28;20418;-76
2023/04/18 23:45:53;;;;;;;;;;;10.20;99.90;;;;;;8383507;28;19967;-76
2023/04/18 23:49:54;;;;;;;;;;;10.30;99.90;;;;;;8389156;28;19929;-76
2023/04/18 23:53:56;;;;;;;;;;;10.40;99.90;;;;;;8389205;28;19949;-76
2023/04/18 23:57:58;;;;;;;;;;;10.40;99.90;;;;;;8388537;28;19930;-76
